This is the latest recevied weather packets stored in our database for station/object W5HKR. If no packets are shown the sender has not sent any weather packets the latest 10 day(s).
| Time | Temp. | Humidity | Pressure | Rain* | Wind** | Luminosity | Snow |
|---|---|---|---|---|---|---|---|
| 1777574602 | 18.33° C | 91% | 990.6 hPa | 0 mm | - | - | - |
| 1777574303 | 18.33° C | 91% | 990.6 hPa | 0 mm | - | - | - |
| 1777574073 | 23.33° C | 77% | 983.1 hPa | 0 mm | - | - | - |
| 1777574003 | 22.78° C | 77% | 983.1 hPa | 0 mm | - | - | - |
| 1777573702 | 18.33° C | 91% | 990.6 hPa | 0 mm | - | - | - |
| 1777573403 | 18.33° C | 91% | 990.6 hPa | 0 mm | - | - | - |
| 1777573101 | 18.33° C | 91% | 990.6 hPa | 0 mm | - | - | - |
| 1777572993 | 22.78° C | 77% | 983.3 hPa | 0 mm | - | - | - |
| 1777572801 | 22.78° C | 77% | 983 hPa | 0 mm | - | - | - |
| 1777572502 | 22.78° C | 77% | 983.1 hPa | 0 mm | - | - | - |
| 1777572203 | 22.78° C | 77% | 983.2 hPa | 0 mm | - | - | - |
| 1777571902 | 18.33° C | 91% | 990.6 hPa | 0 mm | - | - | - |
| 1777571603 | 18.33° C | 91% | 990.6 hPa | 0 mm | - | - | - |
| 1777571303 | 18.33° C | 91% | 990.6 hPa | 0 mm | - | - | - |
| 1777571002 | 18.33° C | 91% | 990.6 hPa | 0 mm | - | - | - |
| 1777570834 | 18.33° C | 91% | 990.6 hPa | 0 mm | - | - | - |
| 1777570701 | 18.33° C | 91% | 990.6 hPa | 0 mm | - | - | - |
| 1777570401 | 22.78° C | 77% | 983.3 hPa | 0 mm | - | - | - |
| 1777570103 | 18.33° C | 91% | 990.6 hPa | 0 mm | - | - | - |
| 1777569802 | 18.33° C | 91% | 990.6 hPa | 0 mm | - | - | - |
| 1777569754 | 22.22° C | 77% | 983.7 hPa | 0 mm | - | - | - |
| 1777569504 | 22.22° C | 78% | 983.7 hPa | 0 mm | - | - | - |
| 1777569202 | 18.33° C | 91% | 990.6 hPa | 0 mm | - | - | - |
| 1777568675 | 21.67° C | 80% | 984.1 hPa | 0 mm | - | - | - |
| 1777568601 | 21.67° C | 81% | 984.1 hPa | 0 mm | - | - | - |
* Rain latest hour (hover to see other rain measurements)
** Current wind speed in m/s (hover to see current wind gust speed)